createdAt,value
2023-05-25T00:08:17.286Z,2.63
2023-05-25T00:14:08.160Z,2.83
2023-05-25T00:16:58.370Z,2.92
2023-05-25T00:19:59.152Z,2.80
2023-05-25T00:35:37.652Z,2.90
2023-05-25T00:41:43.759Z,2.67
2023-05-25T00:44:28.944Z,2.70
2023-05-25T00:47:25.132Z,2.53
2023-05-25T00:50:21.064Z,2.72
2023-05-25T00:53:15.594Z,3.10
2023-05-25T00:59:27.368Z,3.28
2023-05-25T01:02:28.817Z,3.20
2023-05-25T01:12:06.582Z,3.15
2023-05-25T01:12:43.115Z,3.10
2023-05-25T01:18:18.472Z,2.85
2023-05-25T01:21:21.987Z,3.53
2023-05-25T01:24:13.384Z,3.08
2023-05-25T01:27:41.261Z,3.10
2023-05-25T02:09:55.002Z,3.20
2023-05-25T02:16:16.370Z,3.30
2023-05-25T02:18:47.361Z,3.33
2023-05-25T02:24:26.794Z,3.13
2023-05-25T02:27:00.711Z,3.10
2023-05-25T02:29:35.452Z,3.45
2023-05-25T02:32:24.793Z,3.50
2023-05-25T02:34:59.991Z,3.25
2023-05-25T02:40:43.754Z,3.13
2023-05-25T02:43:40.419Z,3.38
2023-05-25T02:49:53.266Z,3.30
2023-05-25T02:52:27.378Z,4.28
2023-05-25T03:11:27.521Z,3.10
2023-05-25T03:14:05.635Z,3.40
2023-05-25T03:17:00.188Z,3.33
2023-05-25T03:22:14.485Z,3.47
2023-05-25T03:25:33.396Z,3.75
2023-05-25T03:28:01.480Z,3.58
2023-05-25T03:30:38.739Z,3.72
2023-05-25T03:33:05.664Z,3.50
2023-05-25T03:35:43.426Z,3.75
2023-05-25T03:38:15.070Z,3.83
2023-05-25T03:40:44.240Z,4.30
2023-05-25T03:47:13.728Z,3.90
2023-05-25T03:56:04.343Z,3.42
2023-05-25T03:58:40.192Z,3.55
2023-05-25T04:01:22.508Z,3.47
2023-05-25T04:03:52.882Z,4.32
2023-05-25T04:09:25.944Z,3.60
2023-05-25T04:11:52.444Z,3.72
2023-05-25T04:14:26.925Z,3.47
2023-05-25T04:16:53.802Z,3.63
2023-05-25T04:19:20.693Z,3.75
2023-05-25T04:21:47.164Z,3.72
2023-05-25T04:24:14.630Z,3.53
2023-05-25T04:26:41.655Z,3.17
2023-05-25T04:29:09.968Z,3.33
2023-05-25T04:31:36.859Z,3.72
2023-05-25T04:34:03.862Z,3.40
2023-05-25T04:36:32.820Z,3.55
2023-05-25T04:39:02.891Z,3.53
2023-05-25T04:41:30.020Z,3.80
2023-05-25T04:44:05.857Z,3.13
2023-05-25T04:46:37.738Z,3.88
2023-05-25T04:49:11.554Z,3.25
2023-05-25T04:51:38.197Z,3.45
2023-05-25T04:54:07.950Z,3.97
2023-05-25T04:57:07.545Z,3.55
2023-05-25T05:02:14.545Z,3.92
2023-05-25T05:04:41.586Z,3.83
2023-05-25T05:07:09.173Z,5.82
2023-05-25T05:09:35.691Z,4.07
2023-05-25T05:12:02.985Z,4.97
2023-05-25T05:14:29.744Z,3.67
2023-05-25T05:16:56.377Z,4.22
2023-05-25T05:19:23.521Z,4.30
2023-05-25T05:21:49.989Z,4.47
2023-05-25T05:24:16.452Z,3.95
2023-05-25T05:26:56.111Z,4.00
2023-05-25T05:29:24.519Z,4.28
2023-05-25T05:31:53.769Z,3.90
2023-05-25T05:34:20.378Z,3.42
2023-05-25T05:36:57.156Z,4.40
2023-05-25T05:39:24.315Z,3.83
2023-05-25T05:41:50.847Z,3.60
2023-05-25T05:44:17.429Z,3.38
2023-05-25T05:46:44.043Z,2.85
2023-05-25T05:49:10.781Z,4.03
2023-05-25T05:51:40.202Z,3.95
2023-05-25T05:54:09.748Z,3.50
2023-05-25T05:56:36.306Z,3.00
2023-05-25T05:59:08.336Z,3.33
2023-05-25T06:01:34.879Z,3.10
2023-05-25T06:04:01.419Z,3.47
2023-05-25T06:06:28.610Z,3.42
2023-05-25T06:08:55.155Z,3.35
2023-05-25T06:11:21.828Z,3.50
2023-05-25T06:13:48.329Z,3.20
2023-05-25T06:16:14.860Z,3.33
2023-05-25T06:18:43.681Z,3.20
2023-05-25T06:21:10.759Z,3.28
2023-05-25T06:23:38.640Z,3.58
2023-05-25T06:26:06.407Z,2.92
2023-05-25T06:28:35.666Z,3.75
2023-05-25T06:31:02.281Z,3.00
2023-05-25T06:36:09.471Z,3.45
2023-05-25T06:38:38.906Z,2.92
2023-05-25T06:41:16.956Z,3.60
2023-05-25T06:43:43.520Z,3.00
2023-05-25T06:46:18.212Z,2.90
2023-05-25T06:48:47.802Z,2.63
2023-05-25T06:51:14.586Z,3.05
2023-05-25T06:53:41.251Z,2.80
2023-05-25T06:56:07.881Z,2.72
2023-05-25T06:58:34.417Z,2.83
2023-05-25T07:01:01.152Z,2.70
2023-05-25T07:03:27.967Z,2.97
2023-05-25T07:05:54.777Z,2.90
2023-05-25T07:08:21.376Z,3.80
2023-05-25T07:10:49.978Z,2.95
2023-05-25T07:13:20.025Z,3.20
2023-05-25T07:15:47.272Z,2.72
2023-05-25T07:18:14.413Z,2.75
2023-05-25T07:20:44.018Z,2.50
2023-05-25T07:23:14.249Z,3.30
2023-05-25T07:25:42.036Z,2.75
2023-05-25T07:28:08.841Z,2.70
2023-05-25T07:30:35.307Z,3.33
2023-05-25T07:33:04.808Z,3.45
2023-05-25T07:35:31.490Z,3.47
2023-05-25T07:38:04.377Z,2.83
2023-05-25T07:40:30.996Z,3.33
2023-05-25T07:42:58.243Z,2.90
2023-05-25T07:45:24.717Z,3.28
2023-05-25T07:47:51.181Z,2.97
2023-05-25T07:50:17.926Z,2.75
2023-05-25T07:52:44.480Z,3.28
2023-05-25T07:55:11.230Z,3.00
2023-05-25T07:57:38.068Z,3.38
2023-05-25T08:00:08.285Z,2.63
2023-05-25T08:02:34.812Z,2.83
2023-05-25T08:05:05.413Z,2.60
2023-05-25T08:07:35.082Z,2.90
2023-05-25T08:10:02.346Z,3.38
2023-05-25T08:12:38.515Z,3.25
2023-05-25T08:15:14.133Z,3.38
2023-05-25T08:17:41.819Z,2.95
2023-05-25T08:22:36.186Z,2.63
2023-05-25T08:25:04.264Z,3.03
2023-05-25T08:27:32.268Z,3.33
2023-05-25T08:30:00.221Z,2.92
2023-05-25T08:32:26.835Z,3.20
2023-05-25T08:34:53.312Z,3.10
2023-05-25T08:37:22.268Z,2.55
2023-05-25T08:39:48.796Z,3.08
2023-05-25T08:42:15.438Z,3.10
2023-05-25T08:44:42.394Z,3.30
2023-05-25T08:47:10.220Z,2.88
2023-05-25T08:49:41.329Z,3.28
2023-05-25T08:52:14.184Z,3.22
2023-05-25T08:54:45.058Z,3.28
2023-05-25T08:57:25.566Z,3.60
2023-05-25T09:00:11.398Z,3.28
2023-05-25T09:03:15.919Z,3.05
2023-05-25T09:05:42.780Z,2.80
2023-05-25T09:08:12.211Z,3.30
2023-05-25T09:10:46.597Z,3.30
2023-05-25T09:15:49.887Z,3.10
2023-05-25T09:18:16.578Z,3.22
2023-05-25T09:20:46.172Z,2.75
2023-05-25T09:23:14.886Z,3.40
2023-05-25T09:25:41.912Z,3.60
2023-05-25T09:28:25.346Z,3.13
2023-05-25T09:30:53.509Z,3.10
2023-05-25T09:33:20.624Z,2.83
2023-05-25T09:35:47.989Z,3.40
2023-05-25T09:38:16.232Z,3.30
2023-05-25T09:40:46.180Z,3.58
2023-05-25T09:43:19.459Z,3.53
2023-05-25T09:45:48.922Z,3.30
2023-05-25T09:48:15.657Z,3.40
2023-05-25T09:50:43.054Z,3.03
2023-05-25T09:53:10.993Z,2.97
2023-05-25T09:55:52.164Z,3.45
2023-05-25T09:58:23.972Z,3.40
2023-05-25T10:00:54.626Z,2.58
2023-05-25T10:03:21.688Z,2.92
2023-05-25T10:05:48.875Z,3.67
2023-05-25T10:08:19.965Z,3.28
2023-05-25T10:10:49.955Z,3.53
2023-05-25T10:13:22.122Z,3.10
2023-05-25T10:15:52.613Z,3.08
2023-05-25T10:18:25.663Z,3.40
2023-05-25T10:21:01.965Z,3.17
2023-05-25T10:23:37.849Z,3.08
2023-05-25T10:26:06.278Z,3.58
2023-05-25T10:28:37.431Z,3.28
2023-05-25T10:33:52.215Z,3.30
2023-05-25T10:36:20.731Z,3.22
2023-05-25T10:41:16.002Z,3.30
2023-05-25T10:43:43.162Z,3.38
2023-05-25T10:46:09.895Z,3.40
2023-05-25T10:48:37.741Z,3.00
2023-05-25T10:51:14.247Z,3.30
2023-05-25T10:53:48.321Z,3.08
2023-05-25T10:56:14.954Z,3.22
2023-05-25T10:58:47.250Z,3.20
2023-05-25T11:01:23.034Z,3.53
2023-05-25T11:04:15.695Z,2.95
2023-05-25T11:06:48.202Z,3.50
2023-05-25T11:09:27.164Z,3.80
2023-05-25T11:12:10.636Z,3.03
2023-05-25T11:15:13.571Z,3.38
2023-05-25T11:24:03.454Z,3.75
2023-05-25T11:27:29.967Z,3.33
2023-05-25T11:30:22.350Z,3.30
2023-05-25T11:33:02.824Z,3.47
2023-05-25T11:39:22.473Z,2.92
2023-05-25T11:42:36.835Z,3.63
2023-05-25T11:48:08.277Z,3.10
2023-05-25T11:50:50.317Z,3.53
2023-05-25T11:53:32.555Z,2.80
2023-05-25T11:56:35.238Z,3.40
2023-05-25T11:59:14.647Z,3.30
2023-05-25T12:07:10.368Z,3.10
2023-05-25T12:09:48.381Z,2.97
2023-05-25T12:12:31.414Z,3.45
2023-05-25T12:15:08.079Z,3.20
2023-05-25T12:17:57.455Z,2.95
2023-05-25T12:20:44.250Z,3.40
2023-05-25T12:23:45.870Z,3.50
2023-05-25T12:26:27.837Z,3.50
2023-05-25T12:29:12.816Z,2.58
2023-05-25T12:38:16.103Z,3.00
2023-05-25T12:41:00.966Z,3.15
2023-05-25T12:44:10.393Z,3.10
2023-05-25T12:46:43.369Z,3.30
2023-05-25T12:50:03.666Z,2.75
2023-05-25T12:53:00.882Z,2.90
2023-05-25T12:55:32.620Z,3.13
2023-05-25T12:58:35.439Z,3.05
2023-05-25T13:01:24.249Z,3.20
2023-05-25T13:03:59.351Z,2.95
2023-05-25T13:06:40.006Z,3.30
2023-05-25T13:11:49.481Z,3.10
2023-05-25T13:18:38.038Z,2.72
2023-05-25T13:24:06.641Z,2.63
2023-05-25T13:29:28.459Z,3.28
2023-05-25T13:32:08.223Z,3.05
2023-05-25T13:35:12.563Z,3.08
2023-05-25T13:37:43.673Z,2.83
2023-05-25T13:40:13.574Z,2.72
2023-05-25T13:43:17.418Z,2.90
2023-05-25T13:45:51.270Z,3.35
2023-05-25T13:51:55.779Z,2.80
2023-05-25T13:54:51.782Z,2.80
2023-05-25T13:57:45.806Z,3.40
2023-05-25T14:00:38.822Z,3.10
2023-05-25T14:03:22.664Z,2.67
2023-05-25T14:05:51.991Z,3.30
2023-05-25T14:08:46.129Z,2.72
2023-05-25T14:11:44.069Z,2.80
2023-05-25T14:14:39.016Z,2.75
2023-05-25T14:20:28.312Z,2.83
2023-05-25T14:22:57.553Z,2.70
2023-05-25T14:32:44.775Z,3.08
2023-05-25T14:42:44.538Z,2.75
2023-05-25T14:45:29.326Z,2.80
2023-05-25T14:48:50.523Z,2.80
2023-05-25T14:51:23.141Z,3.08
2023-05-25T14:57:29.406Z,3.15
2023-05-25T15:03:00.330Z,2.47
2023-05-25T15:04:19.301Z,3.00
2023-05-25T15:07:14.056Z,3.15
2023-05-25T15:11:03.531Z,2.47
2023-05-25T15:17:01.145Z,2.42
2023-05-25T15:20:12.749Z,2.63
2023-05-25T15:32:48.029Z,3.10
2023-05-25T15:39:20.705Z,2.70
2023-05-25T15:48:35.252Z,2.42
2023-05-25T15:51:15.271Z,2.70
2023-05-25T15:53:55.991Z,3.00
2023-05-25T16:02:03.139Z,2.55
2023-05-25T16:05:08.336Z,2.50
2023-05-25T16:08:14.264Z,2.42
2023-05-25T16:10:53.500Z,2.53
2023-05-25T16:13:53.332Z,2.50
2023-05-25T16:22:43.455Z,2.50
2023-05-25T16:25:21.894Z,2.75
2023-05-25T16:28:10.418Z,3.08
2023-05-25T16:31:19.674Z,2.60
2023-05-25T16:34:35.538Z,2.90
2023-05-25T16:40:24.523Z,3.25
2023-05-25T16:42:51.066Z,3.30
2023-05-25T16:45:28.552Z,2.83
2023-05-25T16:48:07.660Z,2.72
2023-05-25T16:50:52.003Z,2.97
2023-05-25T16:53:29.299Z,3.30
2023-05-25T16:56:28.108Z,3.00
2023-05-25T16:59:03.081Z,3.38
2023-05-25T17:01:29.593Z,3.03
2023-05-25T17:03:56.231Z,3.33
2023-05-25T17:06:22.892Z,3.40
2023-05-25T17:08:49.748Z,3.65
2023-05-25T17:11:16.310Z,3.70
2023-05-25T17:13:42.836Z,3.40
2023-05-25T17:16:09.361Z,2.97
2023-05-25T17:18:37.697Z,3.65
2023-05-25T17:21:04.362Z,3.33
2023-05-25T17:23:30.842Z,3.40
2023-05-25T17:25:57.304Z,3.85
2023-05-25T17:28:23.857Z,4.20
2023-05-25T17:30:50.460Z,3.63
2023-05-25T17:33:17.010Z,4.05
2023-05-25T17:35:43.635Z,3.88
2023-05-25T17:38:10.783Z,3.28
2023-05-25T17:40:37.326Z,3.42
2023-05-25T17:43:03.858Z,4.13
2023-05-25T17:45:30.450Z,4.10
2023-05-25T17:47:57.504Z,4.22
2023-05-25T17:50:24.970Z,3.95
2023-05-25T17:52:51.749Z,3.78
2023-05-25T17:55:18.293Z,3.90
2023-05-25T17:57:44.865Z,3.75
2023-05-25T18:00:12.114Z,4.20
2023-05-25T18:02:38.694Z,3.70
2023-05-25T18:05:05.588Z,3.92
2023-05-25T18:07:32.044Z,3.67
2023-05-25T18:09:58.567Z,3.97
2023-05-25T18:12:25.156Z,4.22
2023-05-25T18:14:51.656Z,4.20
2023-05-25T18:17:18.178Z,3.65
2023-05-25T18:19:44.870Z,4.38
2023-05-25T18:22:11.341Z,4.05
2023-05-25T18:24:40.965Z,3.47
2023-05-25T18:27:07.673Z,4.18
2023-05-25T18:29:34.457Z,4.15
2023-05-25T18:32:06.583Z,3.60
2023-05-25T18:34:33.405Z,3.75
2023-05-25T18:36:59.901Z,3.90
2023-05-25T18:39:26.349Z,3.47
2023-05-25T18:41:52.806Z,4.00
2023-05-25T18:44:19.286Z,4.05
2023-05-25T18:46:48.265Z,3.92
2023-05-25T18:49:14.804Z,4.50
2023-05-25T18:51:41.276Z,3.75
2023-05-25T18:54:07.724Z,4.03
2023-05-25T18:56:34.240Z,4.03
2023-05-25T18:59:00.954Z,4.00
2023-05-25T19:01:27.437Z,3.85
2023-05-25T19:03:55.992Z,3.58
2023-05-25T19:06:24.107Z,3.80
2023-05-25T19:08:51.161Z,4.20
2023-05-25T19:11:19.881Z,3.90
2023-05-25T19:13:46.688Z,3.60
2023-05-25T19:16:13.331Z,4.10
2023-05-25T19:18:44.234Z,4.32
2023-05-25T19:21:11.015Z,4.00
2023-05-25T19:23:37.491Z,3.75
2023-05-25T19:26:04.070Z,3.70
2023-05-25T19:28:30.660Z,3.72
2023-05-25T19:30:57.198Z,3.85
2023-05-25T19:33:23.693Z,3.85
2023-05-25T19:35:52.403Z,3.80
2023-05-25T19:38:19.221Z,4.15
2023-05-25T19:40:45.750Z,4.45
2023-05-25T19:43:12.208Z,4.40
2023-05-25T19:45:41.725Z,4.13
2023-05-25T19:48:08.262Z,4.65
2023-05-25T19:50:35.082Z,4.60
2023-05-25T19:53:01.616Z,4.10
2023-05-25T19:55:28.195Z,3.88
2023-05-25T19:57:55.134Z,4.20
2023-05-25T20:00:26.603Z,4.70
2023-05-25T20:02:54.148Z,4.20
2023-05-25T20:05:21.021Z,4.90
2023-05-25T20:07:47.675Z,4.78
2023-05-25T20:10:14.272Z,5.03
2023-05-25T20:12:41.197Z,4.55
2023-05-25T20:15:08.225Z,5.20
2023-05-25T20:17:34.801Z,4.80
2023-05-25T20:20:03.548Z,4.78
2023-05-25T20:22:30.176Z,5.07
2023-05-25T20:24:58.422Z,5.45
2023-05-25T20:27:25.257Z,4.88
2023-05-25T20:29:53.897Z,4.78
2023-05-25T20:32:20.883Z,5.07
2023-05-25T20:34:47.382Z,4.95
2023-05-25T20:37:13.940Z,4.75
2023-05-25T20:39:40.590Z,4.75
2023-05-25T20:42:07.284Z,4.88
2023-05-25T20:44:33.886Z,5.13
2023-05-25T20:47:00.649Z,4.70
2023-05-25T20:49:27.221Z,4.93
2023-05-25T20:52:07.417Z,4.50
2023-05-25T20:54:34.066Z,4.90
2023-05-25T20:57:03.991Z,4.90
2023-05-25T20:59:31.713Z,5.00
2023-05-25T21:01:58.751Z,4.22
2023-05-25T21:04:25.456Z,4.68
2023-05-25T21:06:51.928Z,4.82
2023-05-25T21:09:18.398Z,4.63
2023-05-25T21:11:44.835Z,4.13
2023-05-25T21:14:11.364Z,3.97
2023-05-25T21:16:37.865Z,4.15
2023-05-25T21:19:04.352Z,3.72
2023-05-25T21:21:33.883Z,3.45
2023-05-25T21:24:01.564Z,4.20
2023-05-25T21:26:29.053Z,3.72
2023-05-25T21:28:55.642Z,3.90
2023-05-25T21:31:24.275Z,3.95
2023-05-25T21:33:51.176Z,4.50
2023-05-25T21:36:17.649Z,3.20
2023-05-25T21:38:44.227Z,3.72
2023-05-25T21:41:10.825Z,4.07
2023-05-25T21:43:37.299Z,3.30
2023-05-25T21:46:04.202Z,3.72
2023-05-25T21:48:30.746Z,3.72
2023-05-25T21:50:57.228Z,3.47
2023-05-25T21:53:23.759Z,4.03
2023-05-25T21:55:50.376Z,3.80
2023-05-25T21:58:17.730Z,3.83
2023-05-25T22:00:44.569Z,3.70
2023-05-25T22:03:11.204Z,4.60
2023-05-25T22:05:37.759Z,3.72
2023-05-25T22:08:16.560Z,3.63
2023-05-25T22:10:43.091Z,3.67
2023-05-25T22:13:19.921Z,4.10
2023-05-25T22:15:46.754Z,3.80
2023-05-25T22:18:14.068Z,3.70
2023-05-25T22:20:42.341Z,4.10
2023-05-25T22:25:43.054Z,4.15
2023-05-25T22:28:09.799Z,3.72
2023-05-25T22:30:36.439Z,3.38
2023-05-25T22:33:06.140Z,3.63
2023-05-25T22:35:32.852Z,3.58
2023-05-25T22:37:59.378Z,3.50
2023-05-25T22:40:26.129Z,3.40
2023-05-25T22:42:52.709Z,3.40
2023-05-25T22:45:20.670Z,3.72
2023-05-25T22:47:47.324Z,4.10
2023-05-25T22:50:16.685Z,3.30
2023-05-25T22:52:43.617Z,3.42
2023-05-25T22:55:11.039Z,3.72
2023-05-25T22:57:38.226Z,3.35
2023-05-25T23:00:05.439Z,3.40
2023-05-25T23:02:38.613Z,3.85
2023-05-25T23:08:23.663Z,3.97
2023-05-25T23:11:28.829Z,3.45
2023-05-25T23:17:22.819Z,3.60
2023-05-25T23:20:22.183Z,3.80
2023-05-25T23:23:18.033Z,3.55
2023-05-25T23:26:28.443Z,3.20
2023-05-25T23:30:09.069Z,4.00
2023-05-25T23:32:53.147Z,3.53
2023-05-25T23:36:28.503Z,4.13
2023-05-25T23:38:56.014Z,3.58
2023-05-25T23:41:35.952Z,3.72
2023-05-25T23:51:08.007Z,3.78
2023-05-25T23:54:14.507Z,3.83
